sensor_id;sensor_type;location;lat;lon;timestamp;pressure;altitude;pressure_sealevel;temperature;humidity
26043;BME280;13818;52.156;5.382;2023-03-20T00:00:55;101651.81;;;9.38;100.00
26043;BME280;13818;52.156;5.382;2023-03-20T00:03:23;101652.66;;;9.40;100.00
26043;BME280;13818;52.156;5.382;2023-03-20T00:05:50;101669.53;;;9.39;100.00
26043;BME280;13818;52.156;5.382;2023-03-20T00:08:17;101667.88;;;9.35;100.00
26043;BME280;13818;52.156;5.382;2023-03-20T00:10:44;101668.72;;;9.37;100.00
26043;BME280;13818;52.156;5.382;2023-03-20T00:13:13;101664.03;;;9.45;100.00
26043;BME280;13818;52.156;5.382;2023-03-20T00:15:43;101671.19;;;9.43;100.00
26043;BME280;13818;52.156;5.382;2023-03-20T00:18:14;101666.88;;;9.39;100.00
26043;BME280;13818;52.156;5.382;2023-03-20T00:20:44;101670.59;;;9.32;100.00
26043;BME280;13818;52.156;5.382;2023-03-20T00:23:11;101666.81;;;9.40;100.00
26043;BME280;13818;52.156;5.382;2023-03-20T00:25:40;101658.25;;;9.31;100.00
26043;BME280;13818;52.156;5.382;2023-03-20T00:30:51;101662.63;;;9.32;100.00
26043;BME280;13818;52.156;5.382;2023-03-20T00:33:17;101656.56;;;9.26;100.00
26043;BME280;13818;52.156;5.382;2023-03-20T00:35:47;101651.34;;;9.23;100.00
26043;BME280;13818;52.156;5.382;2023-03-20T00:38:14;101645.00;;;9.27;100.00
26043;BME280;13818;52.156;5.382;2023-03-20T00:40:40;101633.19;;;9.38;100.00
26043;BME280;13818;52.156;5.382;2023-03-20T00:43:16;101648.06;;;9.45;100.00
26043;BME280;13818;52.156;5.382;2023-03-20T00:45:44;101661.41;;;9.43;100.00
26043;BME280;13818;52.156;5.382;2023-03-20T00:48:13;101673.94;;;9.40;100.00
26043;BME280;13818;52.156;5.382;2023-03-20T00:50:40;101668.50;;;9.43;100.00
26043;BME280;13818;52.156;5.382;2023-03-20T00:53:10;101675.00;;;9.34;100.00
26043;BME280;13818;52.156;5.382;2023-03-20T00:55:38;101684.16;;;9.22;100.00
26043;BME280;13818;52.156;5.382;2023-03-20T00:58:06;101687.28;;;9.38;100.00
26043;BME280;13818;52.156;5.382;2023-03-20T01:00:36;101704.38;;;9.30;100.00
26043;BME280;13818;52.156;5.382;2023-03-20T01:03:10;101714.09;;;9.31;100.00
26043;BME280;13818;52.156;5.382;2023-03-20T01:05:38;101710.50;;;9.32;100.00
26043;BME280;13818;52.156;5.382;2023-03-20T01:08:10;101698.22;;;9.27;100.00
26043;BME280;13818;52.156;5.382;2023-03-20T01:10:37;101705.03;;;9.38;100.00
26043;BME280;13818;52.156;5.382;2023-03-20T01:13:05;101696.13;;;9.39;100.00
26043;BME280;13818;52.156;5.382;2023-03-20T01:15:38;101674.09;;;9.34;100.00
26043;BME280;13818;52.156;5.382;2023-03-20T01:18:05;101673.09;;;9.38;100.00
26043;BME280;13818;52.156;5.382;2023-03-20T01:20:33;101679.47;;;9.32;100.00
26043;BME280;13818;52.156;5.382;2023-03-20T01:23:00;101696.09;;;9.40;100.00
26043;BME280;13818;52.156;5.382;2023-03-20T01:25:28;101699.59;;;9.42;100.00
26043;BME280;13818;52.156;5.382;2023-03-20T01:27:54;101688.09;;;9.42;100.00
26043;BME280;13818;52.156;5.382;2023-03-20T01:30:24;101683.72;;;9.39;100.00
26043;BME280;13818;52.156;5.382;2023-03-20T01:32:51;101690.75;;;9.42;100.00
26043;BME280;13818;52.156;5.382;2023-03-20T01:35:20;101699.63;;;9.41;100.00
26043;BME280;13818;52.156;5.382;2023-03-20T01:37:47;101691.69;;;9.39;100.00
26043;BME280;13818;52.156;5.382;2023-03-20T01:40:36;101682.97;;;9.34;100.00
26043;BME280;13818;52.156;5.382;2023-03-20T01:43:12;101677.78;;;9.30;100.00
26043;BME280;13818;52.156;5.382;2023-03-20T01:45:45;101683.16;;;9.26;100.00
26043;BME280;13818;52.156;5.382;2023-03-20T01:48:16;101689.16;;;9.35;100.00
26043;BME280;13818;52.156;5.382;2023-03-20T01:50:43;101688.53;;;9.25;100.00
26043;BME280;13818;52.156;5.382;2023-03-20T01:53:14;101681.22;;;9.33;100.00
26043;BME280;13818;52.156;5.382;2023-03-20T01:55:44;101675.81;;;9.36;100.00
26043;BME280;13818;52.156;5.382;2023-03-20T01:58:14;101664.53;;;9.28;100.00
26043;BME280;13818;52.156;5.382;2023-03-20T02:00:43;101665.31;;;9.30;100.00
26043;BME280;13818;52.156;5.382;2023-03-20T02:03:12;101665.25;;;9.33;100.00
26043;BME280;13818;52.156;5.382;2023-03-20T02:05:39;101684.75;;;9.34;100.00
26043;BME280;13818;52.156;5.382;2023-03-20T02:08:14;101684.75;;;9.34;100.00
26043;BME280;13818;52.156;5.382;2023-03-20T02:10:45;101688.38;;;9.31;100.00
26043;BME280;13818;52.156;5.382;2023-03-20T02:13:12;101668.13;;;9.25;100.00
26043;BME280;13818;52.156;5.382;2023-03-20T02:15:55;101669.84;;;9.26;100.00
26043;BME280;13818;52.156;5.382;2023-03-20T02:18:22;101678.16;;;9.16;100.00
26043;BME280;13818;52.156;5.382;2023-03-20T02:21:02;101674.91;;;9.04;100.00
26043;BME280;13818;52.156;5.382;2023-03-20T02:26:33;101657.94;;;9.08;100.00
26043;BME280;13818;52.156;5.382;2023-03-20T02:29:28;101653.69;;;9.03;100.00
26043;BME280;13818;52.156;5.382;2023-03-20T02:35:31;101662.56;;;9.02;100.00
26043;BME280;13818;52.156;5.382;2023-03-20T02:38:17;101654.69;;;8.97;100.00
26043;BME280;13818;52.156;5.382;2023-03-20T02:40:51;101651.25;;;8.93;100.00
26043;BME280;13818;52.156;5.382;2023-03-20T02:43:25;101653.84;;;8.95;100.00
26043;BME280;13818;52.156;5.382;2023-03-20T02:46:02;101656.44;;;8.98;100.00
26043;BME280;13818;52.156;5.382;2023-03-20T02:48:37;101660.22;;;8.89;100.00
26043;BME280;13818;52.156;5.382;2023-03-20T02:51:11;101656.75;;;8.86;100.00
26043;BME280;13818;52.156;5.382;2023-03-20T02:53:47;101650.78;;;8.77;100.00
26043;BME280;13818;52.156;5.382;2023-03-20T02:56:22;101639.25;;;8.77;100.00
26043;BME280;13818;52.156;5.382;2023-03-20T02:58:56;101629.47;;;8.79;100.00
26043;BME280;13818;52.156;5.382;2023-03-20T03:01:28;101617.13;;;8.76;100.00
26043;BME280;13818;52.156;5.382;2023-03-20T03:04:00;101612.09;;;8.66;100.00
26043;BME280;13818;52.156;5.382;2023-03-20T03:06:29;101596.16;;;8.66;100.00
26043;BME280;13818;52.156;5.382;2023-03-20T03:09:00;101590.50;;;8.42;100.00
26043;BME280;13818;52.156;5.382;2023-03-20T03:11:29;101589.56;;;8.46;100.00
26043;BME280;13818;52.156;5.382;2023-03-20T03:13:58;101601.72;;;8.56;100.00
26043;BME280;13818;52.156;5.382;2023-03-20T03:16:28;101594.47;;;8.61;100.00
26043;BME280;13818;52.156;5.382;2023-03-20T03:19:02;101597.44;;;8.49;100.00
26043;BME280;13818;52.156;5.382;2023-03-20T03:21:31;101607.22;;;8.49;100.00
26043;BME280;13818;52.156;5.382;2023-03-20T03:24:00;101610.69;;;8.51;100.00
26043;BME280;13818;52.156;5.382;2023-03-20T03:26:31;101614.25;;;8.51;100.00
26043;BME280;13818;52.156;5.382;2023-03-20T03:29:01;101606.31;;;8.48;100.00
26043;BME280;13818;52.156;5.382;2023-03-20T03:31:28;101604.63;;;8.44;100.00
26043;BME280;13818;52.156;5.382;2023-03-20T03:33:57;101605.69;;;8.37;100.00
26043;BME280;13818;52.156;5.382;2023-03-20T03:36:35;101589.16;;;8.25;100.00
26043;BME280;13818;52.156;5.382;2023-03-20T03:39:09;101592.78;;;8.21;100.00
26043;BME280;13818;52.156;5.382;2023-03-20T03:41:39;101596.41;;;8.19;100.00
26043;BME280;13818;52.156;5.382;2023-03-20T03:44:12;101591.94;;;8.19;100.00
26043;BME280;13818;52.156;5.382;2023-03-20T03:46:44;101591.94;;;8.19;100.00
26043;BME280;13818;52.156;5.382;2023-03-20T03:49:15;101584.75;;;8.24;100.00
26043;BME280;13818;52.156;5.382;2023-03-20T03:51:44;101590.19;;;8.18;100.00
26043;BME280;13818;52.156;5.382;2023-03-20T03:54:17;101585.84;;;8.15;100.00
26043;BME280;13818;52.156;5.382;2023-03-20T03:56:46;101579.75;;;8.10;100.00
26043;BME280;13818;52.156;5.382;2023-03-20T03:59:19;101581.56;;;8.10;100.00
26043;BME280;13818;52.156;5.382;2023-03-20T04:01:46;101581.50;;;8.11;100.00
26043;BME280;13818;52.156;5.382;2023-03-20T04:04:15;101563.97;;;8.06;100.00
26043;BME280;13818;52.156;5.382;2023-03-20T04:06:42;101566.81;;;7.98;100.00
26043;BME280;13818;52.156;5.382;2023-03-20T04:09:09;101570.22;;;8.03;100.00
26043;BME280;13818;52.156;5.382;2023-03-20T04:11:37;101567.56;;;8.02;100.00
26043;BME280;13818;52.156;5.382;2023-03-20T04:14:04;101573.03;;;7.95;100.00
26043;BME280;13818;52.156;5.382;2023-03-20T04:16:30;101563.41;;;7.91;100.00
26043;BME280;13818;52.156;5.382;2023-03-20T04:18:57;101570.03;;;7.73;100.00
26043;BME280;13818;52.156;5.382;2023-03-20T04:21:23;101568.03;;;7.81;100.00
26043;BME280;13818;52.156;5.382;2023-03-20T04:23:50;101568.97;;;7.80;100.00
26043;BME280;13818;52.156;5.382;2023-03-20T04:26:17;101560.09;;;7.81;100.00
26043;BME280;13818;52.156;5.382;2023-03-20T04:28:46;101556.53;;;7.82;100.00
26043;BME280;13818;52.156;5.382;2023-03-20T04:31:13;101562.72;;;7.81;100.00
26043;BME280;13818;52.156;5.382;2023-03-20T04:33:39;101562.06;;;7.73;100.00
26043;BME280;13818;52.156;5.382;2023-03-20T04:36:07;101566.50;;;7.71;100.00
26043;BME280;13818;52.156;5.382;2023-03-20T04:38:33;101562.41;;;7.58;100.00
26043;BME280;13818;52.156;5.382;2023-03-20T04:41:00;101561.47;;;7.59;100.00
26043;BME280;13818;52.156;5.382;2023-03-20T04:43:26;101568.34;;;7.68;100.00
26043;BME280;13818;52.156;5.382;2023-03-20T04:45:54;101570.06;;;7.70;100.00
26043;BME280;13818;52.156;5.382;2023-03-20T04:48:21;101562.78;;;7.80;100.00
26043;BME280;13818;52.156;5.382;2023-03-20T04:50:47;101568.19;;;7.75;100.00
26043;BME280;13818;52.156;5.382;2023-03-20T04:53:15;101561.16;;;7.73;100.00
26043;BME280;13818;52.156;5.382;2023-03-20T04:55:43;101563.97;;;7.67;100.00
26043;BME280;13818;52.156;5.382;2023-03-20T04:58:10;101563.97;;;7.67;100.00
26043;BME280;13818;52.156;5.382;2023-03-20T05:00:36;101560.47;;;7.64;100.00
26043;BME280;13818;52.156;5.382;2023-03-20T05:03:04;101558.50;;;7.74;100.00
26043;BME280;13818;52.156;5.382;2023-03-20T05:05:31;101557.44;;;7.81;100.00
26043;BME280;13818;52.156;5.382;2023-03-20T05:07:58;101561.88;;;7.81;100.00
26043;BME280;13818;52.156;5.382;2023-03-20T05:10:24;101554.22;;;7.67;100.00
26043;BME280;13818;52.156;5.382;2023-03-20T05:12:51;101547.94;;;7.71;100.00
26043;BME280;13818;52.156;5.382;2023-03-20T05:15:17;101544.28;;;7.77;100.00
26043;BME280;13818;52.156;5.382;2023-03-20T05:17:44;101548.88;;;7.69;100.00
26043;BME280;13818;52.156;5.382;2023-03-20T05:20:12;101552.53;;;7.64;100.00
26043;BME280;13818;52.156;5.382;2023-03-20T05:22:39;101561.34;;;7.67;100.00
26043;BME280;13818;52.156;5.382;2023-03-20T05:25:06;101557.88;;;7.63;100.00
26043;BME280;13818;52.156;5.382;2023-03-20T05:27:32;101555.31;;;7.58;100.00
26043;BME280;13818;52.156;5.382;2023-03-20T05:29:59;101557.09;;;7.56;100.00
26043;BME280;13818;52.156;5.382;2023-03-20T05:32:25;101559.50;;;7.69;100.00
26043;BME280;13818;52.156;5.382;2023-03-20T05:34:52;101554.91;;;7.77;100.00
26043;BME280;13818;52.156;5.382;2023-03-20T05:37:19;101551.56;;;7.67;100.00
26043;BME280;13818;52.156;5.382;2023-03-20T05:39:46;101547.44;;;7.54;100.00
26043;BME280;13818;52.156;5.382;2023-03-20T05:42:12;101562.41;;;7.58;100.00
26043;BME280;13818;52.156;5.382;2023-03-20T05:44:39;101561.56;;;7.56;100.00
26043;BME280;13818;52.156;5.382;2023-03-20T05:47:05;101568.50;;;7.61;100.00
26043;BME280;13818;52.156;5.382;2023-03-20T05:49:32;101563.19;;;7.63;100.00
26043;BME280;13818;52.156;5.382;2023-03-20T05:51:58;101575.47;;;7.67;100.00
26043;BME280;13818;52.156;5.382;2023-03-20T05:54:26;101579.91;;;7.65;100.00
26043;BME280;13818;52.156;5.382;2023-03-20T05:56:53;101582.59;;;7.63;100.00
26043;BME280;13818;52.156;5.382;2023-03-20T05:59:20;101586.22;;;7.61;100.00
26043;BME280;13818;52.156;5.382;2023-03-20T06:01:46;101586.88;;;7.71;100.00
26043;BME280;13818;52.156;5.382;2023-03-20T06:04:12;101573.50;;;7.75;100.00
26043;BME280;13818;52.156;5.382;2023-03-20T06:06:39;101578.16;;;7.65;100.00
26043;BME280;13818;52.156;5.382;2023-03-20T06:09:06;101579.28;;;7.54;100.00
26043;BME280;13818;52.156;5.382;2023-03-20T06:11:33;101571.09;;;7.64;100.00
26043;BME280;13818;52.156;5.382;2023-03-20T06:14:00;101568.53;;;7.60;100.00
26043;BME280;13818;52.156;5.382;2023-03-20T06:16:26;101567.59;;;7.62;100.00
26043;BME280;13818;52.156;5.382;2023-03-20T06:18:53;101569.34;;;7.63;100.00
26043;BME280;13818;52.156;5.382;2023-03-20T06:21:19;101568.34;;;7.68;100.00
26043;BME280;13818;52.156;5.382;2023-03-20T06:23:46;101569.16;;;7.71;100.00
26043;BME280;13818;52.156;5.382;2023-03-20T06:26:12;101573.66;;;7.68;100.00
26043;BME280;13818;52.156;5.382;2023-03-20T06:28:40;101582.66;;;7.62;100.00
26043;BME280;13818;52.156;5.382;2023-03-20T06:31:07;101590.41;;;7.71;100.00
26043;BME280;13818;52.156;5.382;2023-03-20T06:33:34;101591.16;;;7.78;100.00
26043;BME280;13818;52.156;5.382;2023-03-20T06:36:00;101597.28;;;7.80;100.00
26043;BME280;13818;52.156;5.382;2023-03-20T06:38:27;101595.44;;;7.84;100.00
26043;BME280;13818;52.156;5.382;2023-03-20T06:40:54;101585.59;;;7.89;100.00
26043;BME280;13818;52.156;5.382;2023-03-20T06:43:20;101598.13;;;7.82;100.00
26043;BME280;13818;52.156;5.382;2023-03-20T06:45:48;101601.50;;;7.89;100.00
26043;BME280;13818;52.156;5.382;2023-03-20T06:48:14;101605.19;;;7.81;100.00
26043;BME280;13818;52.156;5.382;2023-03-20T06:50:46;101603.78;;;7.65;100.00
26043;BME280;13818;52.156;5.382;2023-03-20T06:53:12;101606.09;;;7.82;100.00
26043;BME280;13818;52.156;5.382;2023-03-20T06:55:39;101598.81;;;7.90;100.00
26043;BME280;13818;52.156;5.382;2023-03-20T06:58:05;101612.69;;;8.03;100.00
26043;BME280;13818;52.156;5.382;2023-03-20T07:00:32;101599.66;;;7.92;100.00
26043;BME280;13818;52.156;5.382;2023-03-20T07:03:00;101604.06;;;7.93;100.00
26043;BME280;13818;52.156;5.382;2023-03-20T07:05:26;101606.75;;;7.92;100.00
26043;BME280;13818;52.156;5.382;2023-03-20T07:07:53;101605.19;;;7.83;100.00
26043;BME280;13818;52.156;5.382;2023-03-20T07:10:19;101599.88;;;7.81;100.00
26043;BME280;13818;52.156;5.382;2023-03-20T07:12:45;101601.41;;;7.93;100.00
26043;BME280;13818;52.156;5.382;2023-03-20T07:15:12;101598.34;;;8.12;100.00
26043;BME280;13818;52.156;5.382;2023-03-20T07:17:39;101601.31;;;7.98;100.00
26043;BME280;13818;52.156;5.382;2023-03-20T07:20:08;101598.66;;;7.98;100.00
26043;BME280;13818;52.156;5.382;2023-03-20T07:22:35;101603.41;;;7.84;100.00
26043;BME280;13818;52.156;5.382;2023-03-20T07:25:02;101604.34;;;7.81;100.00
26043;BME280;13818;52.156;5.382;2023-03-20T07:27:30;101604.13;;;7.92;100.00
26043;BME280;13818;52.156;5.382;2023-03-20T07:29:56;101610.25;;;7.94;100.00
26043;BME280;13818;52.156;5.382;2023-03-20T07:32:23;101614.59;;;7.98;100.00
26043;BME280;13818;52.156;5.382;2023-03-20T07:34:50;101608.50;;;7.93;100.00
26043;BME280;13818;52.156;5.382;2023-03-20T07:37:18;101603.94;;;8.00;100.00
26043;BME280;13818;52.156;5.382;2023-03-20T07:39:45;101608.34;;;8.01;100.00
26043;BME280;13818;52.156;5.382;2023-03-20T07:42:12;101613.75;;;7.96;100.00
26043;BME280;13818;52.156;5.382;2023-03-20T07:44:38;101603.75;;;8.07;100.00
26043;BME280;13818;52.156;5.382;2023-03-20T07:47:05;101609.97;;;8.06;100.00
26043;BME280;13818;52.156;5.382;2023-03-20T07:49:32;101609.72;;;8.15;100.00
26043;BME280;13818;52.156;5.382;2023-03-20T07:51:58;101604.41;;;8.15;100.00
26043;BME280;13818;52.156;5.382;2023-03-20T07:54:26;101614.03;;;8.21;100.00
26043;BME280;13818;52.156;5.382;2023-03-20T07:56:53;101609.56;;;8.23;100.00
26043;BME280;13818;52.156;5.382;2023-03-20T07:59:19;101602.22;;;8.35;100.00
26043;BME280;13818;52.156;5.382;2023-03-20T08:01:46;101607.69;;;8.27;100.00
26043;BME280;13818;52.156;5.382;2023-03-20T08:04:12;101608.63;;;8.24;100.00
26043;BME280;13818;52.156;5.382;2023-03-20T08:06:39;101611.94;;;8.34;100.00
26043;BME280;13818;52.156;5.382;2023-03-20T08:09:06;101602.22;;;8.33;100.00
26043;BME280;13818;52.156;5.382;2023-03-20T08:11:34;101599.66;;;8.30;100.00
26043;BME280;13818;52.156;5.382;2023-03-20T08:14:00;101617.22;;;8.36;100.00
26043;BME280;13818;52.156;5.382;2023-03-20T08:16:27;101607.25;;;8.45;100.00
26043;BME280;13818;52.156;5.382;2023-03-20T08:18:53;101607.25;;;8.45;100.00
26043;BME280;13818;52.156;5.382;2023-03-20T08:21:25;101609.53;;;8.61;100.00
26043;BME280;13818;52.156;5.382;2023-03-20T08:23:52;101611.44;;;8.56;100.00
26043;BME280;13818;52.156;5.382;2023-03-20T08:26:18;101613.53;;;8.79;100.00
26043;BME280;13818;52.156;5.382;2023-03-20T08:28:46;101606.88;;;8.62;100.00
26043;BME280;13818;52.156;5.382;2023-03-20T08:31:13;101607.56;;;8.69;100.00
26043;BME280;13818;52.156;5.382;2023-03-20T08:33:40;101606.47;;;8.78;100.00
26043;BME280;13818;52.156;5.382;2023-03-20T08:36:07;101613.53;;;8.79;100.00
26043;BME280;13818;52.156;5.382;2023-03-20T08:38:34;101604.38;;;8.89;100.00
26043;BME280;13818;52.156;5.382;2023-03-20T08:41:01;101618.22;;;9.02;100.00
26043;BME280;13818;52.156;5.382;2023-03-20T08:43:27;101604.88;;;9.04;100.00
26043;BME280;13818;52.156;5.382;2023-03-20T08:45:55;101609.06;;;9.12;100.00
26043;BME280;13818;52.156;5.382;2023-03-20T08:48:23;101604.28;;;9.25;100.00
26043;BME280;13818;52.156;5.382;2023-03-20T08:50:51;101606.94;;;9.25;100.00
26043;BME280;13818;52.156;5.382;2023-03-20T08:53:17;101601.88;;;9.16;100.00
26043;BME280;13818;52.156;5.382;2023-03-20T08:55:46;101609.56;;;9.27;100.00
26043;BME280;13818;52.156;5.382;2023-03-20T08:58:14;101605.81;;;9.34;100.00
26043;BME280;13818;52.156;5.382;2023-03-20T09:00:41;101603.53;;;9.20;100.00
26043;BME280;13818;52.156;5.382;2023-03-20T09:03:12;101603.66;;;9.16;100.00
26043;BME280;13818;52.156;5.382;2023-03-20T09:05:39;101607.53;;;9.37;100.00
26043;BME280;13818;52.156;5.382;2023-03-20T09:08:06;101608.66;;;9.58;100.00
26043;BME280;13818;52.156;5.382;2023-03-20T09:10:32;101606.41;;;9.44;100.00
26043;BME280;13818;52.156;5.382;2023-03-20T09:12:59;101618.19;;;9.35;100.00
26043;BME280;13818;52.156;5.382;2023-03-20T09:15:26;101616.13;;;9.45;100.00
26043;BME280;13818;52.156;5.382;2023-03-20T09:17:53;101620.84;;;9.35;100.00
26043;BME280;13818;52.156;5.382;2023-03-20T09:20:21;101620.78;;;9.38;100.00
26043;BME280;13818;52.156;5.382;2023-03-20T09:22:47;101620.66;;;9.41;100.00
26043;BME280;13818;52.156;5.382;2023-03-20T09:25:14;101618.25;;;9.64;100.00
26043;BME280;13818;52.156;5.382;2023-03-20T09:27:40;101621.03;;;9.59;100.00
26043;BME280;13818;52.156;5.382;2023-03-20T09:30:09;101621.34;;;9.50;100.00
26043;BME280;13818;52.156;5.382;2023-03-20T09:32:35;101622.25;;;9.49;100.00
26043;BME280;13818;52.156;5.382;2023-03-20T09:35:02;101623.16;;;9.48;100.00
26043;BME280;13818;52.156;5.382;2023-03-20T09:37:31;101623.84;;;9.54;100.00
26043;BME280;13818;52.156;5.382;2023-03-20T09:39:57;101619.13;;;9.64;100.00
26043;BME280;13818;52.156;5.382;2023-03-20T09:42:31;101619.28;;;9.59;100.00
26043;BME280;13818;52.156;5.382;2023-03-20T09:45:04;101613.91;;;9.61;100.00
26043;BME280;13818;52.156;5.382;2023-03-20T09:47:36;101618.50;;;9.56;100.00
26043;BME280;13818;52.156;5.382;2023-03-20T09:50:13;101613.16;;;9.56;100.00
26043;BME280;13818;52.156;5.382;2023-03-20T09:52:53;101614.03;;;9.56;100.00
26043;BME280;13818;52.156;5.382;2023-03-20T09:55:26;101611.88;;;9.69;100.00
26043;BME280;13818;52.156;5.382;2023-03-20T09:57:56;101606.00;;;9.58;100.00
26043;BME280;13818;52.156;5.382;2023-03-20T10:00:27;101597.59;;;9.72;100.00
26043;BME280;13818;52.156;5.382;2023-03-20T10:02:58;101599.03;;;9.84;100.00
26043;BME280;13818;52.156;5.382;2023-03-20T10:05:27;101610.28;;;9.92;100.00
26043;BME280;13818;52.156;5.382;2023-03-20T10:07:57;101603.63;;;9.79;100.00
26043;BME280;13818;52.156;5.382;2023-03-20T10:10:30;101606.03;;;9.86;100.00
26043;BME280;13818;52.156;5.382;2023-03-20T10:13:08;101598.13;;;9.83;100.00
26043;BME280;13818;52.156;5.382;2023-03-20T10:15:44;101594.19;;;9.68;100.00
26043;BME280;13818;52.156;5.382;2023-03-20T10:18:17;101603.97;;;9.96;100.00
26043;BME280;13818;52.156;5.382;2023-03-20T10:20:53;101592.19;;;9.75;100.00
26043;BME280;13818;52.156;5.382;2023-03-20T10:23:26;101602.03;;;10.01;100.00
26043;BME280;13818;52.156;5.382;2023-03-20T10:25:59;101605.25;;;10.11;100.00
26043;BME280;13818;52.156;5.382;2023-03-20T10:28:31;101607.09;;;10.09;100.00
26043;BME280;13818;52.156;5.382;2023-03-20T10:31:13;101599.97;;;10.09;100.00
26043;BME280;13818;52.156;5.382;2023-03-20T10:33:51;101599.09;;;10.37;100.00
26043;BME280;13818;52.156;5.382;2023-03-20T10:36:33;101594.13;;;10.26;100.00
26043;BME280;13818;52.156;5.382;2023-03-20T10:39:09;101593.75;;;10.39;100.00
26043;BME280;13818;52.156;5.382;2023-03-20T10:41:41;101605.63;;;10.27;100.00
26043;BME280;13818;52.156;5.382;2023-03-20T10:44:14;101598.34;;;10.32;100.00
26043;BME280;13818;52.156;5.382;2023-03-20T10:46:44;101593.47;;;10.18;100.00
26043;BME280;13818;52.156;5.382;2023-03-20T10:49:15;101589.44;;;10.06;100.00
26043;BME280;13818;52.156;5.382;2023-03-20T10:51:47;101587.78;;;10.02;100.00
26043;BME280;13818;52.156;5.382;2023-03-20T10:54:22;101586.19;;;9.97;100.00
26043;BME280;13818;52.156;5.382;2023-03-20T10:56:51;101587.69;;;10.05;100.00
26043;BME280;13818;52.156;5.382;2023-03-20T10:59:22;101593.59;;;10.15;100.00
26043;BME280;13818;52.156;5.382;2023-03-20T11:01:49;101583.28;;;10.04;100.00
26043;BME280;13818;52.156;5.382;2023-03-20T11:04:16;101586.78;;;10.06;100.00
26043;BME280;13818;52.156;5.382;2023-03-20T11:06:47;101586.47;;;10.16;100.00
26043;BME280;13818;52.156;5.382;2023-03-20T11:09:21;101583.84;;;9.86;100.00
26043;BME280;13818;52.156;5.382;2023-03-20T11:11:51;101589.72;;;9.97;100.00
26043;BME280;13818;52.156;5.382;2023-03-20T11:14:22;101582.75;;;9.93;100.00
26043;BME280;13818;52.156;5.382;2023-03-20T11:16:50;101582.22;;;9.82;100.00
26043;BME280;13818;52.156;5.382;2023-03-20T11:19:18;101583.22;;;9.77;100.00
26043;BME280;13818;52.156;5.382;2023-03-20T11:21:48;101583.38;;;9.73;100.00
26043;BME280;13818;52.156;5.382;2023-03-20T11:24:25;101583.97;;;9.83;100.00
26043;BME280;13818;52.156;5.382;2023-03-20T11:26:52;101578.50;;;9.87;100.00
26043;BME280;13818;52.156;5.382;2023-03-20T11:29:23;101576.03;;;9.81;100.00
26043;BME280;13818;52.156;5.382;2023-03-20T11:31:52;101562.75;;;9.80;100.00
26043;BME280;13818;52.156;5.382;2023-03-20T11:34:23;101569.47;;;9.91;100.00
26043;BME280;13818;52.156;5.382;2023-03-20T11:36:57;101562.94;;;10.02;100.00
26043;BME280;13818;52.156;5.382;2023-03-20T11:39:26;101557.28;;;9.84;100.00
26043;BME280;13818;52.156;5.382;2023-03-20T11:41:56;101549.94;;;9.92;100.00
26043;BME280;13818;52.156;5.382;2023-03-20T11:44:24;101553.50;;;9.91;100.00
26043;BME280;13818;52.156;5.382;2023-03-20T11:46:59;101548.50;;;10.09;100.00
26043;BME280;13818;52.156;5.382;2023-03-20T11:49:28;101546.91;;;10.03;100.00
26043;BME280;13818;52.156;5.382;2023-03-20T11:51:59;101548.06;;;9.94;100.00
26043;BME280;13818;52.156;5.382;2023-03-20T11:54:28;101548.31;;;10.15;100.00
26043;BME280;13818;52.156;5.382;2023-03-20T11:56:57;101540.06;;;9.94;100.00
26043;BME280;13818;52.156;5.382;2023-03-20T11:59:25;101547.72;;;10.05;100.00
26043;BME280;13818;52.156;5.382;2023-03-20T12:01:56;101549.09;;;10.17;100.00
26043;BME280;13818;52.156;5.382;2023-03-20T12:04:27;101546.75;;;10.35;100.00
26043;BME280;13818;52.156;5.382;2023-03-20T12:06:56;101558.22;;;10.38;100.00
26043;BME280;13818;52.156;5.382;2023-03-20T12:09:32;101560.78;;;10.41;100.00
26043;BME280;13818;52.156;5.382;2023-03-20T12:12:01;101542.56;;;10.28;100.00
26043;BME280;13818;52.156;5.382;2023-03-20T12:14:34;101553.31;;;10.53;100.00
26043;BME280;13818;52.156;5.382;2023-03-20T12:17:31;101551.50;;;10.53;100.00
26043;BME280;13818;52.156;5.382;2023-03-20T12:20:05;101551.63;;;10.22;100.00
26043;BME280;13818;52.156;5.382;2023-03-20T12:22:35;101550.28;;;10.08;100.00
26043;BME280;13818;52.156;5.382;2023-03-20T12:25:17;101550.59;;;10.26;100.00
26043;BME280;13818;52.156;5.382;2023-03-20T12:27:53;101553.63;;;10.15;100.00
26043;BME280;13818;52.156;5.382;2023-03-20T12:30:28;101551.75;;;10.19;100.00
26043;BME280;13818;52.156;5.382;2023-03-20T12:32:59;101550.13;;;10.41;100.00
26043;BME280;13818;52.156;5.382;2023-03-20T12:35:30;101554.28;;;10.50;100.00
26043;BME280;13818;52.156;5.382;2023-03-20T12:37:58;101550.25;;;10.10;100.00
26043;BME280;13818;52.156;5.382;2023-03-20T12:40:33;101547.41;;;10.43;100.00
26043;BME280;13818;52.156;5.382;2023-03-20T12:43:07;101539.56;;;10.38;100.00
26043;BME280;13818;52.156;5.382;2023-03-20T12:45:39;101543.13;;;10.39;100.00
26043;BME280;13818;52.156;5.382;2023-03-20T12:51:04;101536.16;;;10.33;100.00
26043;BME280;13818;52.156;5.382;2023-03-20T12:53:43;101533.94;;;10.48;100.00
26043;BME280;13818;52.156;5.382;2023-03-20T12:56:23;101528.69;;;10.18;100.00
26043;BME280;13818;52.156;5.382;2023-03-20T12:58:58;101530.31;;;10.22;100.00
26043;BME280;13818;52.156;5.382;2023-03-20T13:01:30;101535.03;;;10.14;100.00
26043;BME280;13818;52.156;5.382;2023-03-20T13:04:09;101522.25;;;10.23;100.00
26043;BME280;13818;52.156;5.382;2023-03-20T13:06:49;101525.63;;;10.30;100.00
26043;BME280;13818;52.156;5.382;2023-03-20T13:09:36;101523.41;;;10.16;100.00
26043;BME280;13818;52.156;5.382;2023-03-20T13:12:15;101518.75;;;10.23;100.00